Terminal Aerodrome Forecast
Issued by NWS

Home | Current Version | Previous Version | Text Only | Print | Product List | Glossary On
Versions: 1 2 3 4 5 6 7 8 9 10 11 12 13 14 15 16 17 18 19 20 21 22 23 24 25 26 27 28 29 30 31 32
000
FTUS46 KPQR 151738
TAFUAO
TAF
KUAO 151738Z 1518/1618 36006KT P6SM OVC020
     FM152000 35007KT P6SM SCT025
     FM152100 34010KT P6SM SKC
     FM160600 33006KT P6SM SKC
     FM161200 32005KT P6SM BKN015=

USA.gov is the U.S. government's official web portal to all federal, state and local government web resources and services.